sensor_id;sensor_type;location;lat;lon;timestamp;pressure;altitude;pressure_sealevel;temperature;humidity
16120;BME280;12670;53.502;10.252;2023-07-20T00:02:02;100865.97;;;16.06;100.00
16120;BME280;12670;53.502;10.252;2023-07-20T00:05:07;100867.16;;;16.02;100.00
16120;BME280;12670;53.502;10.252;2023-07-20T00:08:11;100864.66;;;15.98;100.00
16120;BME280;12670;53.502;10.252;2023-07-20T00:11:14;100862.81;;;15.99;100.00
16120;BME280;12670;53.502;10.252;2023-07-20T00:14:17;100862.66;;;16.02;100.00
16120;BME280;12670;53.502;10.252;2023-07-20T00:17:19;100852.13;;;15.99;100.00
16120;BME280;12670;53.502;10.252;2023-07-20T00:20:24;100863.31;;;16.06;100.00
16120;BME280;12670;53.502;10.252;2023-07-20T00:23:28;100854.25;;;16.08;100.00
16120;BME280;12670;53.502;10.252;2023-07-20T00:26:31;100864.84;;;16.10;100.00
16120;BME280;12670;53.502;10.252;2023-07-20T00:29:33;100864.56;;;16.14;100.00
16120;BME280;12670;53.502;10.252;2023-07-20T00:32:36;100861.66;;;16.17;100.00
16120;BME280;12670;53.502;10.252;2023-07-20T00:35:39;100873.72;;;16.24;100.00
16120;BME280;12670;53.502;10.252;2023-07-20T00:38:43;100855.75;;;16.26;100.00
16120;BME280;12670;53.502;10.252;2023-07-20T00:41:46;100860.72;;;16.33;100.00
16120;BME280;12670;53.502;10.252;2023-07-20T00:44:48;100848.28;;;16.32;100.00
16120;BME280;12670;53.502;10.252;2023-07-20T00:47:51;100842.44;;;16.39;100.00
16120;BME280;12670;53.502;10.252;2023-07-20T00:50:54;100845.00;;;16.41;100.00
16120;BME280;12670;53.502;10.252;2023-07-20T00:53:58;100843.84;;;16.45;100.00
16120;BME280;12670;53.502;10.252;2023-07-20T00:57:01;100853.50;;;16.47;100.00
16120;BME280;12670;53.502;10.252;2023-07-20T01:00:06;100861.25;;;16.52;100.00
16120;BME280;12670;53.502;10.252;2023-07-20T01:03:09;100851.59;;;16.49;100.00
16120;BME280;12670;53.502;10.252;2023-07-20T01:06:18;100849.81;;;16.21;100.00
16120;BME280;12670;53.502;10.252;2023-07-20T01:09:28;100853.56;;;16.19;100.00
16120;BME280;12670;53.502;10.252;2023-07-20T01:12:36;100852.69;;;16.33;100.00
16120;BME280;12670;53.502;10.252;2023-07-20T01:15:49;100857.28;;;16.31;100.00
16120;BME280;12670;53.502;10.252;2023-07-20T01:18:51;100858.53;;;16.25;100.00
16120;BME280;12670;53.502;10.252;2023-07-20T01:21:59;100856.03;;;16.36;100.00
16120;BME280;12670;53.502;10.252;2023-07-20T01:25:21;100863.00;;;16.39;100.00
16120;BME280;12670;53.502;10.252;2023-07-20T01:28:37;100862.94;;;16.53;100.00
16120;BME280;12670;53.502;10.252;2023-07-20T01:31:44;100867.78;;;16.48;100.00
16120;BME280;12670;53.502;10.252;2023-07-20T01:34:47;100863.63;;;16.57;100.00
16120;BME280;12670;53.502;10.252;2023-07-20T01:37:52;100858.47;;;16.53;100.00
16120;BME280;12670;53.502;10.252;2023-07-20T01:40:57;100852.63;;;16.47;100.00
16120;BME280;12670;53.502;10.252;2023-07-20T01:44:00;100855.94;;;16.38;100.00
16120;BME280;12670;53.502;10.252;2023-07-20T01:47:05;100848.06;;;16.35;100.00
16120;BME280;12670;53.502;10.252;2023-07-20T01:50:08;100853.63;;;16.32;100.00
16120;BME280;12670;53.502;10.252;2023-07-20T01:53:11;100849.81;;;16.21;100.00
16120;BME280;12670;53.502;10.252;2023-07-20T01:56:13;100858.06;;;16.18;100.00
16120;BME280;12670;53.502;10.252;2023-07-20T01:59:16;100850.50;;;16.11;100.00
16120;BME280;12670;53.502;10.252;2023-07-20T02:02:20;100846.78;;;16.13;100.00
16120;BME280;12670;53.502;10.252;2023-07-20T02:05:23;100850.97;;;15.89;100.00
16120;BME280;12670;53.502;10.252;2023-07-20T02:08:26;100848.69;;;15.97;100.00
16120;BME280;12670;53.502;10.252;2023-07-20T02:11:28;100844.88;;;16.01;100.00
16120;BME280;12670;53.502;10.252;2023-07-20T02:14:31;100846.78;;;15.99;100.00
16120;BME280;12670;53.502;10.252;2023-07-20T02:17:36;100855.66;;;15.99;100.00
16120;BME280;12670;53.502;10.252;2023-07-20T02:20:40;100843.91;;;16.02;100.00
16120;BME280;12670;53.502;10.252;2023-07-20T02:23:43;100848.69;;;15.97;100.00
16120;BME280;12670;53.502;10.252;2023-07-20T02:26:45;100853.19;;;15.96;100.00
16120;BME280;12670;53.502;10.252;2023-07-20T02:29:48;100851.84;;;15.89;100.00
16120;BME280;12670;53.502;10.252;2023-07-20T02:32:53;100855.97;;;15.95;100.00
16120;BME280;12670;53.502;10.252;2023-07-20T02:35:56;100858.34;;;15.99;100.00
16120;BME280;12670;53.502;10.252;2023-07-20T02:38:58;100863.03;;;15.96;100.00
16120;BME280;12670;53.502;10.252;2023-07-20T02:42:01;100862.56;;;15.89;100.00
16120;BME280;12670;53.502;10.252;2023-07-20T02:45:05;100874.50;;;15.84;100.00
16120;BME280;12670;53.502;10.252;2023-07-20T02:48:09;100873.53;;;15.85;100.00
16120;BME280;12670;53.502;10.252;2023-07-20T02:51:12;100879.09;;;15.96;100.00
16120;BME280;12670;53.502;10.252;2023-07-20T02:54:15;100878.84;;;15.70;100.00
16120;BME280;12670;53.502;10.252;2023-07-20T02:57:17;100870.06;;;15.68;100.00
16120;BME280;12670;53.502;10.252;2023-07-20T03:00:20;100864.72;;;15.83;100.00
16120;BME280;12670;53.502;10.252;2023-07-20T03:03:26;100861.88;;;15.86;100.00
16120;BME280;12670;53.502;10.252;2023-07-20T03:06:28;100864.25;;;15.76;100.00
16120;BME280;12670;53.502;10.252;2023-07-20T03:09:32;100874.09;;;15.76;100.00
16120;BME280;12670;53.502;10.252;2023-07-20T03:12:35;100872.97;;;15.80;100.00
16120;BME280;12670;53.502;10.252;2023-07-20T03:15:38;100875.94;;;15.89;100.00
16120;BME280;12670;53.502;10.252;2023-07-20T03:18:42;100876.41;;;15.96;100.00
16120;BME280;12670;53.502;10.252;2023-07-20T03:21:44;100886.53;;;15.91;100.00
16120;BME280;12670;53.502;10.252;2023-07-20T03:24:47;100887.88;;;15.84;100.00
16120;BME280;12670;53.502;10.252;2023-07-20T03:27:50;100876.69;;;15.91;100.00
16120;BME280;12670;53.502;10.252;2023-07-20T03:30:53;100879.25;;;15.93;100.00
16120;BME280;12670;53.502;10.252;2023-07-20T03:33:58;100880.81;;;15.97;100.00
16120;BME280;12670;53.502;10.252;2023-07-20T03:37:01;100878.59;;;16.04;100.00
16120;BME280;12670;53.502;10.252;2023-07-20T03:40:07;100887.19;;;15.94;100.00
16120;BME280;12670;53.502;10.252;2023-07-20T03:43:09;100882.41;;;15.85;100.00
16120;BME280;12670;53.502;10.252;2023-07-20T03:46:12;100885.31;;;15.96;100.00
16120;BME280;12670;53.502;10.252;2023-07-20T03:49:16;100887.50;;;16.04;100.00
16120;BME280;12670;53.502;10.252;2023-07-20T03:52:19;100892.84;;;16.04;100.00
16120;BME280;12670;53.502;10.252;2023-07-20T03:55:22;100889.78;;;15.96;100.00
16120;BME280;12670;53.502;10.252;2023-07-20T03:58:24;100884.44;;;15.96;100.00
16120;BME280;12670;53.502;10.252;2023-07-20T04:01:27;100893.13;;;15.85;100.00
16120;BME280;12670;53.502;10.252;2023-07-20T04:04:31;100897.41;;;15.88;100.00
16120;BME280;12670;53.502;10.252;2023-07-20T04:07:34;100901.34;;;15.96;100.00
16120;BME280;12670;53.502;10.252;2023-07-20T04:10:37;100900.03;;;15.89;100.00
16120;BME280;12670;53.502;10.252;2023-07-20T04:13:40;100893.06;;;16.01;100.00
16120;BME280;12670;53.502;10.252;2023-07-20T04:16:42;100895.53;;;16.04;100.00
16120;BME280;12670;53.502;10.252;2023-07-20T04:19:46;100894.09;;;15.98;100.00
16120;BME280;12670;53.502;10.252;2023-07-20T04:22:49;100902.22;;;15.97;100.00
16120;BME280;12670;53.502;10.252;2023-07-20T04:25:52;100899.81;;;15.92;100.00
16120;BME280;12670;53.502;10.252;2023-07-20T04:28:55;100907.19;;;16.03;100.00
16120;BME280;12670;53.502;10.252;2023-07-20T04:31:57;100902.31;;;16.10;100.00
16120;BME280;12670;53.502;10.252;2023-07-20T04:35:05;100908.53;;;16.10;100.00
16120;BME280;12670;53.502;10.252;2023-07-20T04:38:09;100910.22;;;16.11;100.00
16120;BME280;12670;53.502;10.252;2023-07-20T04:41:12;100903.75;;;16.01;100.00
16120;BME280;12670;53.502;10.252;2023-07-20T04:44:14;100907.19;;;16.17;100.00
16120;BME280;12670;53.502;10.252;2023-07-20T04:47:17;100909.69;;;16.20;100.00
16120;BME280;12670;53.502;10.252;2023-07-20T04:50:21;100905.84;;;16.24;100.00
16120;BME280;12670;53.502;10.252;2023-07-20T04:53:25;100913.97;;;16.23;100.00
16120;BME280;12670;53.502;10.252;2023-07-20T04:56:28;100905.84;;;16.24;100.00
16120;BME280;12670;53.502;10.252;2023-07-20T04:59:32;100909.75;;;16.33;100.00
16120;BME280;12670;53.502;10.252;2023-07-20T05:02:35;100908.91;;;16.33;100.00
16120;BME280;12670;53.502;10.252;2023-07-20T05:05:40;100903.44;;;16.34;100.00
16120;BME280;12670;53.502;10.252;2023-07-20T05:08:42;100909.97;;;16.30;100.00
16120;BME280;12670;53.502;10.252;2023-07-20T05:11:45;100913.41;;;16.32;100.00
16120;BME280;12670;53.502;10.252;2023-07-20T05:14:49;100902.47;;;16.35;100.00
16120;BME280;12670;53.502;10.252;2023-07-20T05:17:51;100902.47;;;16.35;100.00
16120;BME280;12670;53.502;10.252;2023-07-20T05:20:56;100903.06;;;16.40;100.00
16120;BME280;12670;53.502;10.252;2023-07-20T05:23:58;100906.13;;;16.48;100.00
16120;BME280;12670;53.502;10.252;2023-07-20T05:27:01;100909.84;;;16.46;100.00
16120;BME280;12670;53.502;10.252;2023-07-20T05:30:05;100911.38;;;16.50;100.00
16120;BME280;12670;53.502;10.252;2023-07-20T05:33:08;100915.25;;;16.59;100.00
16120;BME280;12670;53.502;10.252;2023-07-20T05:36:13;100913.25;;;16.62;100.00
16120;BME280;12670;53.502;10.252;2023-07-20T05:39:16;100916.13;;;16.59;100.00
16120;BME280;12670;53.502;10.252;2023-07-20T05:42:19;100918.16;;;16.56;100.00
16120;BME280;12670;53.502;10.252;2023-07-20T05:45:22;100913.31;;;16.48;100.00
16120;BME280;12670;53.502;10.252;2023-07-20T05:48:24;100909.22;;;16.69;100.00
16120;BME280;12670;53.502;10.252;2023-07-20T05:51:28;100911.25;;;16.66;100.00
16120;BME280;12670;53.502;10.252;2023-07-20T05:54:31;100909.50;;;16.65;100.00
16120;BME280;12670;53.502;10.252;2023-07-20T05:57:34;100916.16;;;16.73;100.00
16120;BME280;12670;53.502;10.252;2023-07-20T06:00:37;100913.41;;;16.88;100.00
16120;BME280;12670;53.502;10.252;2023-07-20T06:03:39;100915.69;;;16.94;100.00
16120;BME280;12670;53.502;10.252;2023-07-20T06:06:43;100913.88;;;16.94;100.00
16120;BME280;12670;53.502;10.252;2023-07-20T06:09:47;100923.72;;;16.94;100.00
16120;BME280;12670;53.502;10.252;2023-07-20T06:12:49;100922.19;;;17.04;100.00
16120;BME280;12670;53.502;10.252;2023-07-20T06:15:52;100918.34;;;17.08;100.00
16120;BME280;12670;53.502;10.252;2023-07-20T06:18:55;100918.56;;;17.18;100.00
16120;BME280;12670;53.502;10.252;2023-07-20T06:21:59;100931.63;;;17.10;100.00
16120;BME280;12670;53.502;10.252;2023-07-20T06:25:02;100922.19;;;17.04;100.00
16120;BME280;12670;53.502;10.252;2023-07-20T06:28:05;100925.56;;;17.20;100.00
16120;BME280;12670;53.502;10.252;2023-07-20T06:31:07;100926.38;;;17.08;100.00
16120;BME280;12670;53.502;10.252;2023-07-20T06:34:10;100932.13;;;17.29;100.00
16120;BME280;12670;53.502;10.252;2023-07-20T06:37:14;100932.78;;;17.32;100.00
16120;BME280;12670;53.502;10.252;2023-07-20T06:40:17;100924.19;;;17.27;100.00
16120;BME280;12670;53.502;10.252;2023-07-20T06:43:23;100929.16;;;17.46;100.00
16120;BME280;12670;53.502;10.252;2023-07-20T06:46:28;100933.19;;;17.26;100.00
16120;BME280;12670;53.502;10.252;2023-07-20T06:49:31;100927.56;;;17.44;100.00
16120;BME280;12670;53.502;10.252;2023-07-20T06:52:35;100927.72;;;17.55;100.00
16120;BME280;12670;53.502;10.252;2023-07-20T06:55:38;100920.41;;;17.57;100.00
16120;BME280;12670;53.502;10.252;2023-07-20T06:58:43;100919.97;;;17.50;100.00
16120;BME280;12670;53.502;10.252;2023-07-20T07:01:45;100928.81;;;17.65;100.00
16120;BME280;12670;53.502;10.252;2023-07-20T07:04:48;100917.38;;;17.89;100.00
16120;BME280;12670;53.502;10.252;2023-07-20T07:08:00;100912.75;;;18.03;100.00
16120;BME280;12670;53.502;10.252;2023-07-20T07:11:03;100921.84;;;17.88;100.00
16120;BME280;12670;53.502;10.252;2023-07-20T07:14:06;100914.25;;;17.95;100.00
16120;BME280;12670;53.502;10.252;2023-07-20T07:17:09;100925.31;;;17.90;100.00
16120;BME280;12670;53.502;10.252;2023-07-20T07:20:12;100915.44;;;17.91;100.00
16120;BME280;12670;53.502;10.252;2023-07-20T07:23:23;100915.44;;;17.78;100.00
16120;BME280;12670;53.502;10.252;2023-07-20T07:26:26;100921.22;;;17.84;100.00
16120;BME280;12670;53.502;10.252;2023-07-20T07:29:29;100919.66;;;17.55;100.00
16120;BME280;12670;53.502;10.252;2023-07-20T07:32:31;100923.88;;;17.59;100.00
16120;BME280;12670;53.502;10.252;2023-07-20T07:35:34;100924.06;;;17.56;100.00
16120;BME280;12670;53.502;10.252;2023-07-20T07:38:38;100921.69;;;17.64;100.00
16120;BME280;12670;53.502;10.252;2023-07-20T07:42:01;100923.69;;;17.88;100.00
16120;BME280;12670;53.502;10.252;2023-07-20T07:45:04;100910.81;;;17.93;100.00
16120;BME280;12670;53.502;10.252;2023-07-20T07:48:07;100919.41;;;17.98;100.00
16120;BME280;12670;53.502;10.252;2023-07-20T07:51:12;100919.31;;;18.12;100.00
16120;BME280;12670;53.502;10.252;2023-07-20T07:54:18;100924.34;;;17.91;100.00
16120;BME280;12670;53.502;10.252;2023-07-20T07:57:20;100920.91;;;18.02;100.00
16120;BME280;12670;53.502;10.252;2023-07-20T08:00:23;100926.47;;;18.11;100.00
16120;BME280;12670;53.502;10.252;2023-07-20T08:03:26;100923.72;;;18.00;100.00
16120;BME280;12670;53.502;10.252;2023-07-20T08:06:29;100930.78;;;18.14;100.00
16120;BME280;12670;53.502;10.252;2023-07-20T08:09:34;100931.84;;;18.11;100.00
16120;BME280;12670;53.502;10.252;2023-07-20T08:12:36;100934.22;;;18.29;100.00
16120;BME280;12670;53.502;10.252;2023-07-20T08:15:41;100945.41;;;18.35;100.00
16120;BME280;12670;53.502;10.252;2023-07-20T08:18:44;100944.63;;;18.33;100.00
16120;BME280;12670;53.502;10.252;2023-07-20T08:21:47;100944.78;;;18.06;100.00
16120;BME280;12670;53.502;10.252;2023-07-20T08:24:51;100950.34;;;18.16;100.00
16120;BME280;12670;53.502;10.252;2023-07-20T08:27:54;100942.41;;;18.02;100.00
16120;BME280;12670;53.502;10.252;2023-07-20T08:30:57;100937.44;;;18.21;100.00
16120;BME280;12670;53.502;10.252;2023-07-20T08:34:00;100933.13;;;18.44;100.00
16120;BME280;12670;53.502;10.252;2023-07-20T08:37:10;100939.31;;;18.70;95.33
16120;BME280;12670;53.502;10.252;2023-07-20T08:40:15;100938.56;;;19.05;97.06
16120;BME280;12670;53.502;10.252;2023-07-20T08:43:17;100931.47;;;19.04;94.55
16120;BME280;12670;53.502;10.252;2023-07-20T08:46:21;100938.19;;;19.22;94.12
16120;BME280;12670;53.502;10.252;2023-07-20T08:49:26;100943.00;;;19.06;95.97
16120;BME280;12670;53.502;10.252;2023-07-20T08:52:29;100942.03;;;19.31;95.19
16120;BME280;12670;53.502;10.252;2023-07-20T08:55:34;100942.06;;;19.42;94.86
16120;BME280;12670;53.502;10.252;2023-07-20T08:58:38;100946.81;;;18.90;89.19
16120;BME280;12670;53.502;10.252;2023-07-20T09:01:41;100945.31;;;19.34;86.55
16120;BME280;12670;53.502;10.252;2023-07-20T09:04:46;100939.25;;;19.43;86.00
16120;BME280;12670;53.502;10.252;2023-07-20T09:07:48;100945.19;;;19.84;87.66
16120;BME280;12670;53.502;10.252;2023-07-20T09:10:53;100941.44;;;20.20;85.26
16120;BME280;12670;53.502;10.252;2023-07-20T09:14:03;100948.28;;;20.13;86.96
16120;BME280;12670;53.502;10.252;2023-07-20T09:17:06;100973.84;;;19.61;81.50
16120;BME280;12670;53.502;10.252;2023-07-20T09:20:16;100964.13;;;19.23;87.97
16120;BME280;12670;53.502;10.252;2023-07-20T09:23:29;100967.41;;;19.03;88.80
16120;BME280;12670;53.502;10.252;2023-07-20T09:26:40;100960.38;;;18.89;90.40
16120;BME280;12670;53.502;10.252;2023-07-20T09:29:49;100968.59;;;19.35;88.81
16120;BME280;12670;53.502;10.252;2023-07-20T09:32:52;100959.47;;;19.49;90.44
16120;BME280;12670;53.502;10.252;2023-07-20T09:36:02;100952.88;;;19.77;88.99
16120;BME280;12670;53.502;10.252;2023-07-20T09:39:24;100942.53;;;20.06;88.92
16120;BME280;12670;53.502;10.252;2023-07-20T09:42:32;100947.31;;;20.14;86.03
16120;BME280;12670;53.502;10.252;2023-07-20T09:45:39;100952.97;;;20.44;80.49
16120;BME280;12670;53.502;10.252;2023-07-20T09:48:51;100941.91;;;20.92;75.34
16120;BME280;12670;53.502;10.252;2023-07-20T09:51:57;100936.09;;;20.54;77.25
16120;BME280;12670;53.502;10.252;2023-07-20T09:55:03;100947.34;;;20.36;78.69
16120;BME280;12670;53.502;10.252;2023-07-20T09:58:08;100962.38;;;20.05;82.04
16120;BME280;12670;53.502;10.252;2023-07-20T10:01:12;100985.53;;;19.25;95.31
16120;BME280;12670;53.502;10.252;2023-07-20T10:04:18;100981.19;;;18.98;100.00
16120;BME280;12670;53.502;10.252;2023-07-20T10:07:27;100977.72;;;19.09;100.00
16120;BME280;12670;53.502;10.252;2023-07-20T10:10:31;100980.72;;;18.68;100.00
16120;BME280;12670;53.502;10.252;2023-07-20T10:13:38;100979.00;;;18.79;100.00
16120;BME280;12670;53.502;10.252;2023-07-20T10:16:44;100977.25;;;19.15;100.00
16120;BME280;12670;53.502;10.252;2023-07-20T10:19:54;100979.97;;;19.39;100.00
16120;BME280;12670;53.502;10.252;2023-07-20T10:22:57;100963.88;;;19.74;96.87
16120;BME280;12670;53.502;10.252;2023-07-20T10:26:01;100957.00;;;20.28;93.37
16120;BME280;12670;53.502;10.252;2023-07-20T10:29:05;100968.16;;;20.79;88.62
16120;BME280;12670;53.502;10.252;2023-07-20T10:32:09;100955.03;;;20.86;80.68
16120;BME280;12670;53.502;10.252;2023-07-20T10:35:13;100955.03;;;20.97;79.34
16120;BME280;12670;53.502;10.252;2023-07-20T10:38:16;100949.72;;;21.50;83.11
16120;BME280;12670;53.502;10.252;2023-07-20T10:41:20;100945.75;;;21.65;78.00
16120;BME280;12670;53.502;10.252;2023-07-20T10:44:24;100947.72;;;22.05;76.40
16120;BME280;12670;53.502;10.252;2023-07-20T10:47:27;100935.97;;;22.37;70.67
16120;BME280;12670;53.502;10.252;2023-07-20T10:50:29;100946.50;;;22.70;72.42
16120;BME280;12670;53.502;10.252;2023-07-20T10:53:33;100936.94;;;22.66;71.93
16120;BME280;12670;53.502;10.252;2023-07-20T10:56:37;100941.19;;;23.09;68.25
16120;BME280;12670;53.502;10.252;2023-07-20T10:59:41;100952.16;;;23.07;65.74
16120;BME280;12670;53.502;10.252;2023-07-20T11:02:46;100946.25;;;22.83;65.29
16120;BME280;12670;53.502;10.252;2023-07-20T11:05:52;100949.44;;;22.57;63.12
16120;BME280;12670;53.502;10.252;2023-07-20T11:08:56;100943.78;;;22.70;69.66
16120;BME280;12670;53.502;10.252;2023-07-20T11:12:09;100953.94;;;22.17;67.55
16120;BME280;12670;53.502;10.252;2023-07-20T11:15:14;100955.47;;;21.56;74.45
16120;BME280;12670;53.502;10.252;2023-07-20T11:18:17;100961.22;;;21.20;80.53
16120;BME280;12670;53.502;10.252;2023-07-20T11:21:21;100956.88;;;20.85;83.43
16120;BME280;12670;53.502;10.252;2023-07-20T11:24:24;100963.88;;;21.95;80.89
16120;BME280;12670;53.502;10.252;2023-07-20T11:27:27;100958.59;;;21.94;68.83
16120;BME280;12670;53.502;10.252;2023-07-20T11:30:33;100961.94;;;22.28;71.38
16120;BME280;12670;53.502;10.252;2023-07-20T11:33:37;100972.69;;;22.39;74.55
16120;BME280;12670;53.502;10.252;2023-07-20T11:36:40;100966.69;;;22.35;70.84
16120;BME280;12670;53.502;10.252;2023-07-20T11:39:46;100968.13;;;21.98;74.06
16120;BME280;12670;53.502;10.252;2023-07-20T11:45:57;100977.97;;;21.78;76.89
16120;BME280;12670;53.502;10.252;2023-07-20T11:49:01;100975.84;;;21.61;75.06
16120;BME280;12670;53.502;10.252;2023-07-20T11:52:05;100966.94;;;22.32;70.61
16120;BME280;12670;53.502;10.252;2023-07-20T11:55:09;100971.75;;;22.08;68.00
16120;BME280;12670;53.502;10.252;2023-07-20T11:58:12;100974.34;;;21.89;71.36
16120;BME280;12670;53.502;10.252;2023-07-20T12:01:19;100976.91;;;21.90;70.47
16120;BME280;12670;53.502;10.252;2023-07-20T12:04:22;100973.28;;;22.01;69.75
16120;BME280;12670;53.502;10.252;2023-07-20T12:07:27;100967.09;;;21.89;70.08
16120;BME280;12670;53.502;10.252;2023-07-20T12:10:30;100975.53;;;21.96;68.81
16120;BME280;12670;53.502;10.252;2023-07-20T12:13:42;100966.09;;;22.32;74.95
16120;BME280;12670;53.502;10.252;2023-07-20T12:16:52;100956.69;;;22.26;70.28
16120;BME280;12670;53.502;10.252;2023-07-20T12:19:57;100969.34;;;22.26;68.38
16120;BME280;12670;53.502;10.252;2023-07-20T12:23:01;100974.13;;;22.43;70.31
16120;BME280;12670;53.502;10.252;2023-07-20T12:26:06;100971.72;;;22.19;67.40
16120;BME280;12670;53.502;10.252;2023-07-20T12:29:09;100970.72;;;22.41;65.69
16120;BME280;12670;53.502;10.252;2023-07-20T12:32:13;100973.25;;;22.64;65.51
16120;BME280;12670;53.502;10.252;2023-07-20T12:35:16;100967.81;;;22.33;64.40
16120;BME280;12670;53.502;10.252;2023-07-20T12:38:18;100969.41;;;22.15;68.00
16120;BME280;12670;53.502;10.252;2023-07-20T12:41:21;100972.59;;;22.50;68.66
16120;BME280;12670;53.502;10.252;2023-07-20T12:44:23;100970.59;;;22.22;67.96
16120;BME280;12670;53.502;10.252;2023-07-20T12:47:28;100967.88;;;21.59;70.29
16120;BME280;12670;53.502;10.252;2023-07-20T12:50:30;100980.31;;;21.28;73.68
16120;BME280;12670;53.502;10.252;2023-07-20T12:53:33;100977.69;;;21.17;74.04
16120;BME280;12670;53.502;10.252;2023-07-20T12:56:36;100971.84;;;20.78;76.27
16120;BME280;12670;53.502;10.252;2023-07-20T12:59:42;100977.31;;;20.99;77.07
16120;BME280;12670;53.502;10.252;2023-07-20T13:02:46;100979.94;;;20.89;79.91
16120;BME280;12670;53.502;10.252;2023-07-20T13:05:50;100980.63;;;21.02;79.48
16120;BME280;12670;53.502;10.252;2023-07-20T13:08:55;100975.50;;;20.99;79.60
16120;BME280;12670;53.502;10.252;2023-07-20T13:11:59;100971.13;;;20.87;80.51
16120;BME280;12670;53.502;10.252;2023-07-20T13:15:04;100971.84;;;20.78;79.94
16120;BME280;12670;53.502;10.252;2023-07-20T13:18:09;100962.25;;;20.96;79.79
16120;BME280;12670;53.502;10.252;2023-07-20T13:21:12;100961.53;;;20.94;82.70
16120;BME280;12670;53.502;10.252;2023-07-20T13:24:14;100973.53;;;21.01;81.62
16120;BME280;12670;53.502;10.252;2023-07-20T13:27:17;100965.91;;;21.29;81.54
16120;BME280;12670;53.502;10.252;2023-07-20T13:30:20;100967.25;;;21.12;82.09
16120;BME280;12670;53.502;10.252;2023-07-20T13:33:24;100964.63;;;21.33;82.90
16120;BME280;12670;53.502;10.252;2023-07-20T13:36:29;100965.59;;;21.43;83.70
16120;BME280;12670;53.502;10.252;2023-07-20T13:39:32;100961.38;;;21.50;81.54
16120;BME280;12670;53.502;10.252;2023-07-20T13:42:35;100957.53;;;21.85;81.79
16120;BME280;12670;53.502;10.252;2023-07-20T13:45:39;100956.47;;;21.97;77.28
16120;BME280;12670;53.502;10.252;2023-07-20T13:48:43;100955.38;;;22.00;77.10
16120;BME280;12670;53.502;10.252;2023-07-20T13:51:46;100955.97;;;22.55;71.76
16120;BME280;12670;53.502;10.252;2023-07-20T13:55:09;100962.66;;;22.91;71.63
16120;BME280;12670;53.502;10.252;2023-07-20T13:58:11;100960.53;;;22.54;63.11
16120;BME280;12670;53.502;10.252;2023-07-20T14:01:14;100962.47;;;22.43;62.36
16120;BME280;12670;53.502;10.252;2023-07-20T14:04:31;100966.38;;;22.59;63.22
16120;BME280;12670;53.502;10.252;2023-07-20T14:07:34;100973.22;;;23.04;60.27
16120;BME280;12670;53.502;10.252;2023-07-20T14:10:37;100963.78;;;23.77;59.91
16120;BME280;12670;53.502;10.252;2023-07-20T14:13:43;100961.59;;;23.23;54.55
16120;BME280;12670;53.502;10.252;2023-07-20T14:16:48;100957.44;;;22.69;57.40
16120;BME280;12670;53.502;10.252;2023-07-20T14:19:52;100948.63;;;23.26;57.52
16120;BME280;12670;53.502;10.252;2023-07-20T14:22:55;100956.19;;;23.23;58.28
16120;BME280;12670;53.502;10.252;2023-07-20T14:25:59;100965.63;;;23.77;59.39
16120;BME280;12670;53.502;10.252;2023-07-20T14:29:02;100957.75;;;23.54;56.08
16120;BME280;12670;53.502;10.252;2023-07-20T14:32:05;100960.31;;;23.17;55.76
16120;BME280;12670;53.502;10.252;2023-07-20T14:35:10;100958.78;;;23.34;54.39
16120;BME280;12670;53.502;10.252;2023-07-20T14:38:13;100958.72;;;23.14;55.08
16120;BME280;12670;53.502;10.252;2023-07-20T14:41:15;100962.72;;;23.10;59.56
16120;BME280;12670;53.502;10.252;2023-07-20T14:44:19;100960.13;;;22.99;52.99
16120;BME280;12670;53.502;10.252;2023-07-20T14:47:22;100964.97;;;22.96;54.47
16120;BME280;12670;53.502;10.252;2023-07-20T14:50:26;100961.53;;;22.94;56.85
16120;BME280;12670;53.502;10.252;2023-07-20T14:53:28;100974.66;;;22.68;57.10
16120;BME280;12670;53.502;10.252;2023-07-20T14:56:34;100977.19;;;22.29;60.45
16120;BME280;12670;53.502;10.252;2023-07-20T14:59:39;100965.84;;;22.14;60.41
16120;BME280;12670;53.502;10.252;2023-07-20T15:02:42;100969.53;;;21.92;58.61
16120;BME280;12670;53.502;10.252;2023-07-20T15:05:46;100971.31;;;22.03;58.87
16120;BME280;12670;53.502;10.252;2023-07-20T15:08:49;100965.16;;;22.12;59.07
16120;BME280;12670;53.502;10.252;2023-07-20T15:11:52;100955.19;;;22.13;56.74
16120;BME280;12670;53.502;10.252;2023-07-20T15:15:03;100965.31;;;21.99;56.71
16120;BME280;12670;53.502;10.252;2023-07-20T15:18:06;100962.16;;;21.94;57.99
16120;BME280;12670;53.502;10.252;2023-07-20T15:21:10;100950.25;;;22.18;56.98
16120;BME280;12670;53.502;10.252;2023-07-20T15:24:13;100951.34;;;21.94;57.50
16120;BME280;12670;53.502;10.252;2023-07-20T15:27:16;100950.44;;;21.84;57.90
16120;BME280;12670;53.502;10.252;2023-07-20T15:30:19;100954.78;;;21.96;59.15
16120;BME280;12670;53.502;10.252;2023-07-20T15:33:24;100950.53;;;22.03;54.20
16120;BME280;12670;53.502;10.252;2023-07-20T15:36:29;100960.88;;;21.98;55.93
16120;BME280;12670;53.502;10.252;2023-07-20T15:39:32;100954.03;;;21.73;56.94
16120;BME280;12670;53.502;10.252;2023-07-20T15:42:35;100957.44;;;21.54;55.43
16120;BME280;12670;53.502;10.252;2023-07-20T15:45:39;100959.72;;;21.38;58.17
16120;BME280;12670;53.502;10.252;2023-07-20T15:48:42;100952.78;;;21.56;57.64